Time;durP1;ratioP1;P1;durP2;ratioP2;P2;SDS_P1;SDS_P2;PMS_P1;PMS_P2;Temp;Humidity;BMP_temperature;BMP_pressure;BME280_temperature;BME280_humidity;BME280_pressure;Samples;Min_cycle;Max_cycle;Signal;HPM_P1;HPM_P2
2023/03/18 00:02:01;;;;;;;8.60;6.40;;;11.30;99.90;;;;;;5122568;27;20046;-82
2023/03/18 00:04:26;;;;;;;11.43;6.57;;;11.30;99.90;;;;;;5108246;27;20047;-82
2023/03/18 00:06:53;;;;;;;9.93;6.50;;;11.30;99.90;;;;;;5090774;27;20081;-82
2023/03/18 00:09:19;;;;;;;11.53;6.50;;;11.30;99.90;;;;;;5127651;27;20032;-82
2023/03/18 00:11:46;;;;;;;8.27;6.00;;;11.30;99.90;;;;;;5090299;27;20120;-82
2023/03/18 00:14:11;;;;;;;9.43;7.00;;;11.30;99.90;;;;;;5088802;27;20048;-81
2023/03/18 00:16:37;;;;;;;8.50;6.37;;;11.30;99.90;;;;;;5087596;27;20039;-82
2023/03/18 00:19:03;;;;;;;8.77;6.43;;;11.30;99.90;;;;;;5070417;27;20061;-83
2023/03/18 00:21:30;;;;;;;8.77;6.32;;;11.30;99.90;;;;;;5108360;27;20039;-82
2023/03/18 00:23:57;;;;;;;10.30;6.33;;;11.30;99.90;;;;;;5105699;27;20054;-81
2023/03/18 00:26:27;;;;;;;10.00;6.47;;;11.30;99.90;;;;;;5107354;27;20351;-81
2023/03/18 00:28:56;;;;;;;8.83;6.27;;;11.30;99.90;;;;;;5124540;27;20468;-82
2023/03/18 00:31:23;;;;;;;10.87;7.37;;;11.30;99.90;;;;;;5122549;27;20105;-82
2023/03/18 00:33:49;;;;;;;10.57;6.53;;;11.20;99.90;;;;;;5110281;27;20043;-82
2023/03/18 00:36:17;;;;;;;8.93;6.30;;;11.30;99.90;;;;;;5121930;27;20058;-82
2023/03/18 00:38:44;;;;;;;9.70;7.13;;;11.30;99.90;;;;;;5120786;27;20624;-82
2023/03/18 00:41:14;;;;;;;10.83;6.90;;;11.30;99.90;;;;;;5105959;27;20042;-82
2023/03/18 00:43:52;;;;;;;12.00;7.30;;;11.30;99.90;;;;;;5100388;27;20032;-82
2023/03/18 00:46:23;;;;;;;11.93;7.80;;;11.40;99.90;;;;;;5110843;27;20077;-82
2023/03/18 00:48:50;;;;;;;10.20;6.88;;;11.40;99.90;;;;;;5101833;27;20442;-81
2023/03/18 00:51:17;;;;;;;12.45;7.05;;;11.50;99.90;;;;;;5104828;27;20059;-82
2023/03/18 00:53:46;;;;;;;11.80;7.10;;;11.50;99.90;;;;;;5088237;27;20038;-81
2023/03/18 00:56:12;;;;;;;12.90;8.40;;;11.50;99.90;;;;;;5124010;27;20599;-82
2023/03/18 00:58:39;;;;;;;12.37;7.57;;;11.60;99.90;;;;;;5074328;27;20039;-82
2023/03/18 01:01:07;;;;;;;11.07;7.63;;;11.60;99.90;;;;;;5105383;27;20055;-81
2023/03/18 01:03:33;;;;;;;14.40;8.25;;;11.60;99.90;;;;;;5107511;27;20043;-82
2023/03/18 01:06:01;;;;;;;14.13;8.40;;;11.60;99.90;;;;;;5100511;28;20044;-82
2023/03/18 01:08:29;;;;;;;13.23;8.37;;;11.60;99.90;;;;;;5088650;27;20079;-80
2023/03/18 01:10:55;;;;;;;11.93;8.33;;;11.50;99.90;;;;;;5123071;27;20047;-81
2023/03/18 01:13:22;;;;;;;13.33;8.20;;;11.50;99.90;;;;;;5122519;27;20039;-82
2023/03/18 01:15:49;;;;;;;11.97;8.53;;;11.40;99.90;;;;;;5076037;27;20048;-82
2023/03/18 01:18:15;;;;;;;13.30;8.50;;;11.40;99.90;;;;;;5127818;27;20070;-81
2023/03/18 01:20:41;;;;;;;14.53;8.63;;;11.40;99.90;;;;;;5106285;27;20075;-82
2023/03/18 01:23:07;;;;;;;14.03;9.10;;;11.30;99.90;;;;;;5121469;27;20474;-82
2023/03/18 01:25:33;;;;;;;13.70;9.27;;;11.30;99.90;;;;;;5109061;27;20055;-82
2023/03/18 01:27:59;;;;;;;12.87;9.30;;;11.20;99.90;;;;;;5084680;27;20479;-81
2023/03/18 01:30:25;;;;;;;13.27;9.43;;;11.10;99.90;;;;;;5104708;27;20099;-81
2023/03/18 01:32:51;;;;;;;15.40;9.73;;;11.10;99.90;;;;;;5072941;27;20084;-81
2023/03/18 01:35:16;;;;;;;13.03;9.97;;;10.90;99.90;;;;;;5105481;27;20673;-81
2023/03/18 01:37:43;;;;;;;13.43;10.17;;;10.90;99.90;;;;;;5088673;27;20116;-82
2023/03/18 01:40:10;;;;;;;14.43;10.90;;;10.80;99.90;;;;;;5104803;27;20401;-82
2023/03/18 01:42:36;;;;;;;15.10;10.73;;;10.70;99.90;;;;;;5106113;27;20103;-82
2023/03/18 01:45:16;;;;;;;14.60;11.00;;;10.60;99.90;;;;;;5099844;27;20055;-83
2023/03/18 01:47:43;;;;;;;14.10;11.20;;;10.50;99.90;;;;;;5106970;27;20043;-82
2023/03/18 01:50:11;;;;;;;16.13;12.10;;;10.40;99.90;;;;;;5088887;27;20059;-81
2023/03/18 01:52:38;;;;;;;13.33;10.87;;;10.40;99.90;;;;;;5105278;27;20104;-82
2023/03/18 01:55:16;;;;;;;15.27;11.73;;;10.30;99.90;;;;;;5108196;27;20103;-82
2023/03/18 01:57:43;;;;;;;16.60;12.50;;;10.30;99.90;;;;;;5102895;27;20051;-82
2023/03/18 02:00:10;;;;;;;18.97;12.87;;;10.30;99.90;;;;;;5107214;27;20073;-81
2023/03/18 02:02:39;;;;;;;16.13;12.10;;;10.20;99.90;;;;;;5103589;27;20123;-82
2023/03/18 02:05:10;;;;;;;21.23;14.07;;;10.10;99.90;;;;;;5090831;27;20047;-81
2023/03/18 02:07:36;;;;;;;19.40;14.13;;;10.10;99.90;;;;;;5125330;27;20081;-82
2023/03/18 02:10:10;;;;;;;21.13;14.90;;;10.10;99.90;;;;;;5122922;27;20051;-81
2023/03/18 02:12:38;;;;;;;23.47;15.77;;;10.10;99.90;;;;;;5123904;27;20120;-81
2023/03/18 02:15:09;;;;;;;21.10;14.80;;;10.10;99.90;;;;;;5102894;28;20111;-81
2023/03/18 02:17:39;;;;;;;23.88;16.33;;;10.10;99.90;;;;;;5102470;27;20039;-81
2023/03/18 02:20:26;;;;;;;21.40;16.77;;;10.00;99.90;;;;;;5104991;28;20324;-81
2023/03/18 02:23:10;;;;;;;21.77;16.90;;;10.10;99.90;;;;;;5088062;27;20048;-81
2023/03/18 02:26:07;;;;;;;21.43;16.67;;;10.10;99.90;;;;;;5085705;28;20076;-81
2023/03/18 02:28:35;;;;;;;22.77;16.97;;;10.20;99.90;;;;;;5119346;27;20062;-82
2023/03/18 02:31:04;;;;;;;22.07;16.77;;;10.20;99.90;;;;;;5121286;27;20035;-81
2023/03/18 02:33:35;;;;;;;23.37;17.50;;;10.30;99.90;;;;;;5107025;28;20051;-82
2023/03/18 02:36:05;;;;;;;26.10;18.17;;;10.30;99.90;;;;;;5105100;27;20680;-82
2023/03/18 02:38:31;;;;;;;24.30;18.17;;;10.30;99.90;;;;;;5105590;28;20061;-82
2023/03/18 02:40:56;;;;;;;24.87;17.80;;;10.30;99.90;;;;;;5100454;28;20107;-82
2023/03/18 02:43:24;;;;;;;25.83;18.13;;;10.30;99.90;;;;;;5084102;28;20441;-82
2023/03/18 02:45:59;;;;;;;26.87;19.27;;;10.30;99.90;;;;;;5123254;27;20032;-81
2023/03/18 02:48:32;;;;;;;28.83;18.43;;;10.30;99.90;;;;;;5119558;28;20047;-82
2023/03/18 02:50:58;;;;;;;26.63;19.97;;;10.30;99.90;;;;;;5106411;28;20074;-81
2023/03/18 02:53:25;;;;;;;25.97;17.97;;;10.30;99.90;;;;;;5100778;28;20048;-83
2023/03/18 02:55:50;;;;;;;26.17;18.73;;;10.30;99.90;;;;;;5123446;28;20119;-81
2023/03/18 02:58:16;;;;;;;24.93;18.80;;;10.30;99.90;;;;;;5102853;28;20470;-81
2023/03/18 03:00:42;;;;;;;24.20;19.43;;;10.30;99.90;;;;;;5085079;28;20574;-81
2023/03/18 03:03:08;;;;;;;25.73;19.87;;;10.30;99.90;;;;;;5105464;28;20047;-81
2023/03/18 03:05:34;;;;;;;26.47;18.80;;;10.30;99.90;;;;;;5099832;28;20039;-81
2023/03/18 03:08:01;;;;;;;27.20;19.57;;;10.30;99.90;;;;;;5072958;28;20109;-82
2023/03/18 03:10:27;;;;;;;28.77;20.00;;;10.20;99.90;;;;;;5101785;28;20557;-82
2023/03/18 03:12:54;;;;;;;29.00;19.90;;;10.20;99.90;;;;;;5105775;28;20055;-82
2023/03/18 03:15:19;;;;;;;26.07;20.17;;;10.20;99.90;;;;;;5098771;28;20061;-82
2023/03/18 03:17:47;;;;;;;28.00;20.53;;;10.20;99.90;;;;;;5123755;28;20039;-82
2023/03/18 03:20:14;;;;;;;26.93;19.63;;;10.20;99.90;;;;;;5090660;28;20104;-82
2023/03/18 03:22:41;;;;;;;29.53;21.70;;;10.10;99.90;;;;;;5104737;27;20084;-81
2023/03/18 03:25:08;;;;;;;26.77;20.63;;;10.10;99.90;;;;;;5108063;27;20054;-81
2023/03/18 03:27:35;;;;;;;27.43;21.13;;;10.10;99.90;;;;;;5106117;27;20052;-81
2023/03/18 03:30:01;;;;;;;29.67;22.03;;;10.10;99.90;;;;;;5123933;27;20493;-81
2023/03/18 03:32:28;;;;;;;28.70;21.70;;;10.10;99.90;;;;;;5089625;27;20456;-82
2023/03/18 03:34:53;;;;;;;30.37;22.63;;;10.10;99.90;;;;;;5107896;27;20058;-82
2023/03/18 03:37:20;;;;;;;30.70;21.97;;;10.00;99.90;;;;;;5109564;27;20528;-82
2023/03/18 03:39:45;;;;;;;29.33;22.10;;;10.00;99.90;;;;;;5071639;28;20031;-82
2023/03/18 03:42:11;;;;;;;31.03;22.57;;;10.00;99.90;;;;;;5126872;27;20087;-82
2023/03/18 03:44:37;;;;;;;30.87;22.53;;;10.00;99.90;;;;;;5084723;27;20521;-83
2023/03/18 03:47:03;;;;;;;30.57;23.00;;;9.90;99.90;;;;;;5127875;27;20051;-83
2023/03/18 03:49:28;;;;;;;32.03;23.03;;;9.90;99.90;;;;;;5073337;27;20049;-82
2023/03/18 03:51:54;;;;;;;33.47;23.83;;;9.80;99.90;;;;;;5105637;27;20107;-82
2023/03/18 03:54:20;;;;;;;35.70;24.17;;;9.80;99.90;;;;;;5078147;27;20117;-82
2023/03/18 03:56:46;;;;;;;32.00;24.80;;;9.80;99.90;;;;;;5104459;27;20074;-82
2023/03/18 03:59:12;;;;;;;34.67;24.03;;;9.80;99.90;;;;;;5109281;27;20049;-82
2023/03/18 04:01:38;;;;;;;32.57;22.93;;;9.70;99.90;;;;;;5071764;27;20083;-82
2023/03/18 04:04:04;;;;;;;31.23;22.23;;;9.70;99.90;;;;;;5128940;27;20054;-82
2023/03/18 04:06:30;;;;;;;30.13;23.03;;;9.60;99.90;;;;;;5091571;27;20047;-82
2023/03/18 04:08:56;;;;;;;31.80;23.63;;;9.60;99.90;;;;;;5093756;27;20480;-82
2023/03/18 04:11:21;;;;;;;30.37;22.37;;;9.50;99.90;;;;;;5123216;27;20043;-81
2023/03/18 04:13:47;;;;;;;28.23;21.33;;;9.50;99.90;;;;;;5086690;27;20066;-82
2023/03/18 04:16:13;;;;;;;25.50;20.07;;;9.50;99.90;;;;;;5088294;27;20046;-82
2023/03/18 04:18:39;;;;;;;27.20;19.80;;;9.50;99.90;;;;;;5064953;27;20135;-83
2023/03/18 04:21:06;;;;;;;27.87;19.67;;;9.40;99.90;;;;;;5091212;28;20035;-81
2023/03/18 04:23:33;;;;;;;27.70;20.43;;;9.40;99.90;;;;;;5106316;27;20051;-82
2023/03/18 04:25:59;;;;;;;28.87;20.73;;;9.40;99.90;;;;;;5127538;27;20547;-82
2023/03/18 04:28:25;;;;;;;30.50;20.70;;;9.40;99.90;;;;;;5106725;27;20048;-81
2023/03/18 04:30:51;;;;;;;30.87;20.10;;;9.40;99.90;;;;;;5106530;27;20046;-82
2023/03/18 04:33:18;;;;;;;29.47;20.93;;;9.40;99.90;;;;;;5107688;28;20445;-81
2023/03/18 04:35:44;;;;;;;27.83;21.43;;;9.30;99.90;;;;;;5108007;27;20051;-81
2023/03/18 04:38:10;;;;;;;29.83;21.33;;;9.30;99.90;;;;;;5104968;27;20043;-82
2023/03/18 04:40:37;;;;;;;25.17;20.30;;;9.30;99.90;;;;;;5105305;27;20103;-81
2023/03/18 04:43:03;;;;;;;26.63;20.57;;;9.30;99.90;;;;;;5106056;28;20031;-82
2023/03/18 04:45:29;;;;;;;25.73;20.17;;;9.30;99.90;;;;;;5104111;27;20055;-81
2023/03/18 04:47:55;;;;;;;29.67;21.50;;;9.30;99.90;;;;;;5071058;27;20059;-81
2023/03/18 04:50:20;;;;;;;27.23;20.73;;;9.30;99.90;;;;;;5105973;27;20051;-80
2023/03/18 04:52:47;;;;;;;29.47;20.63;;;9.30;99.90;;;;;;5108871;27;20077;-81
2023/03/18 04:55:15;;;;;;;28.70;21.63;;;9.30;99.90;;;;;;5128207;27;20138;-81
2023/03/18 04:57:42;;;;;;;26.97;20.97;;;9.30;99.90;;;;;;5106614;27;20086;-81
2023/03/18 05:00:11;;;;;;;25.20;19.93;;;9.30;99.90;;;;;;5108192;28;20501;-82
2023/03/18 05:02:38;;;;;;;25.27;19.93;;;9.30;99.90;;;;;;5104893;27;20054;-81
2023/03/18 05:05:04;;;;;;;26.33;19.87;;;9.40;99.90;;;;;;5108022;27;20050;-82
2023/03/18 05:07:30;;;;;;;24.07;19.17;;;9.40;99.90;;;;;;5108818;27;20058;-82
2023/03/18 05:09:56;;;;;;;25.20;19.63;;;9.40;99.90;;;;;;5105853;27;20119;-82
2023/03/18 05:12:24;;;;;;;27.20;21.00;;;9.40;99.90;;;;;;5102919;27;20066;-81
2023/03/18 05:14:51;;;;;;;25.77;20.53;;;9.40;99.90;;;;;;5101385;27;20040;-82
2023/03/18 05:17:17;;;;;;;26.80;21.10;;;9.40;99.90;;;;;;5128467;27;20402;-82
2023/03/18 05:19:45;;;;;;;28.77;21.53;;;9.30;99.90;;;;;;5107064;27;20051;-82
2023/03/18 05:22:12;;;;;;;28.33;21.80;;;9.40;99.90;;;;;;5089295;27;20422;-82
2023/03/18 05:24:39;;;;;;;29.03;22.13;;;9.40;99.90;;;;;;5088830;27;20047;-83
2023/03/18 05:27:05;;;;;;;30.73;22.90;;;9.40;99.90;;;;;;5086063;27;20036;-82
2023/03/18 05:29:31;;;;;;;29.80;22.77;;;9.40;99.90;;;;;;5107422;28;20091;-80
2023/03/18 05:31:57;;;;;;;29.87;22.87;;;9.40;99.90;;;;;;5123432;27;20051;-82
2023/03/18 05:34:23;;;;;;;30.10;22.43;;;9.40;99.90;;;;;;5104948;27;20869;-82
2023/03/18 05:36:50;;;;;;;30.53;24.57;;;9.40;99.90;;;;;;5089037;28;20044;-82
2023/03/18 05:39:16;;;;;;;31.83;24.07;;;9.30;99.90;;;;;;5107348;27;20037;-82
2023/03/18 05:41:41;;;;;;;29.20;23.13;;;9.30;99.90;;;;;;5090690;27;20122;-82
2023/03/18 05:44:07;;;;;;;32.30;24.70;;;9.30;99.90;;;;;;5098547;27;20462;-81
2023/03/18 05:46:33;;;;;;;33.90;24.93;;;9.30;99.90;;;;;;5088894;27;20044;-81
2023/03/18 05:48:59;;;;;;;32.63;25.43;;;9.30;99.90;;;;;;5081075;27;20044;-82
2023/03/18 05:51:25;;;;;;;31.63;24.23;;;9.30;99.90;;;;;;5083185;27;20507;-79
2023/03/18 05:53:51;;;;;;;34.57;24.63;;;9.30;99.90;;;;;;5096295;27;20068;-80
2023/03/18 05:56:17;;;;;;;34.03;24.80;;;9.40;99.90;;;;;;5110531;27;20047;-82
2023/03/18 05:58:43;;;;;;;33.23;23.97;;;9.30;99.90;;;;;;5062274;28;20154;-82
2023/03/18 06:01:10;;;;;;;32.07;22.93;;;9.40;99.90;;;;;;5080482;28;20040;-83
2023/03/18 06:03:36;;;;;;;30.87;24.10;;;9.40;99.90;;;;;;5062417;28;20025;-84
2023/03/18 06:06:02;;;;;;;31.47;23.40;;;9.40;99.90;;;;;;5082453;28;20454;-81
2023/03/18 06:08:28;;;;;;;31.13;23.93;;;9.40;99.90;;;;;;5077571;28;20061;-80
2023/03/18 06:10:54;;;;;;;31.90;24.10;;;9.40;99.90;;;;;;5077000;28;20084;-82
2023/03/18 06:13:20;;;;;;;31.40;23.73;;;9.40;99.90;;;;;;5079285;28;20052;-82
2023/03/18 06:15:46;;;;;;;30.53;23.70;;;9.40;99.90;;;;;;5082780;28;20059;-82
2023/03/18 06:18:12;;;;;;;32.43;23.93;;;9.40;99.90;;;;;;5084017;28;20518;-82
2023/03/18 06:20:38;;;;;;;31.90;22.43;;;9.40;99.90;;;;;;5077977;28;20127;-82
2023/03/18 06:23:04;;;;;;;29.60;22.23;;;9.40;99.90;;;;;;5052136;28;20075;-81
2023/03/18 06:25:30;;;;;;;31.93;23.77;;;9.40;99.90;;;;;;5048402;28;20036;-81
2023/03/18 06:27:56;;;;;;;26.77;21.57;;;9.40;99.90;;;;;;5080726;28;20062;-81
2023/03/18 06:30:22;;;;;;;29.60;21.97;;;9.40;99.90;;;;;;5081433;28;20048;-81
2023/03/18 06:32:48;;;;;;;29.20;22.37;;;9.50;99.90;;;;;;5080937;28;20049;-81
2023/03/18 06:35:15;;;;;;;27.83;22.20;;;9.50;99.90;;;;;;5073858;28;20126;-81
2023/03/18 06:37:41;;;;;;;29.23;23.43;;;9.50;99.90;;;;;;5078740;28;20040;-81
2023/03/18 06:40:09;;;;;;;31.37;21.90;;;9.60;99.90;;;;;;5059473;28;20624;-81
2023/03/18 06:42:35;;;;;;;28.50;22.37;;;9.60;99.90;;;;;;5048932;28;20048;-79
2023/03/18 06:45:01;;;;;;;29.63;21.80;;;9.60;99.90;;;;;;5076718;28;20044;-80
2023/03/18 06:47:27;;;;;;;32.50;23.70;;;9.70;99.90;;;;;;5079341;28;20053;-82
2023/03/18 06:49:54;;;;;;;29.87;21.77;;;9.70;99.90;;;;;;5078805;28;20400;-81
2023/03/18 06:52:22;;;;;;;30.47;22.87;;;9.70;99.90;;;;;;5072942;28;20041;-81
2023/03/18 06:54:48;;;;;;;33.10;23.13;;;9.70;99.90;;;;;;5068181;28;20052;-80
2023/03/18 06:57:13;;;;;;;26.50;21.43;;;9.70;99.90;;;;;;5077521;27;20463;-80
2023/03/18 06:59:39;;;;;;;28.80;22.73;;;9.70;99.90;;;;;;5129049;27;20148;-80
2023/03/18 07:02:07;;;;;;;29.40;22.80;;;9.70;99.90;;;;;;5104257;27;20036;-81
2023/03/18 07:04:33;;;;;;;24.43;20.13;;;9.70;99.90;;;;;;5128976;27;20052;-80
2023/03/18 07:06:59;;;;;;;28.83;22.90;;;9.70;99.90;;;;;;5094588;27;20046;-80
2023/03/18 07:09:26;;;;;;;30.07;21.70;;;9.70;99.90;;;;;;5094622;27;20081;-80
2023/03/18 07:11:52;;;;;;;31.83;22.90;;;9.70;99.90;;;;;;5109333;27;20104;-80
2023/03/18 07:14:18;;;;;;;30.00;22.47;;;9.80;99.90;;;;;;5130729;27;20047;-80
2023/03/18 07:16:44;;;;;;;32.50;22.63;;;9.90;99.90;;;;;;5127825;27;20044;-81
2023/03/18 07:19:11;;;;;;;26.90;21.70;;;10.00;99.90;;;;;;5092475;27;20099;-80
2023/03/18 07:21:36;;;;;;;28.60;22.40;;;10.00;99.90;;;;;;5097585;27;20059;-81
2023/03/18 07:24:02;;;;;;;27.70;22.10;;;10.10;99.90;;;;;;5130731;27;20498;-80
2023/03/18 07:26:28;;;;;;;28.87;21.90;;;10.20;99.90;;;;;;5096857;27;20039;-80
2023/03/18 07:28:54;;;;;;;27.80;21.20;;;10.30;99.90;;;;;;5090251;27;20039;-81
2023/03/18 07:31:20;;;;;;;28.10;21.23;;;10.30;99.90;;;;;;5108174;27;20050;-80
2023/03/18 07:33:45;;;;;;;29.30;22.43;;;10.30;99.90;;;;;;5111203;27;20027;-80
2023/03/18 07:36:12;;;;;;;30.67;21.83;;;10.40;99.90;;;;;;5108359;27;20055;-81
2023/03/18 07:38:38;;;;;;;28.70;21.47;;;10.40;99.90;;;;;;5132369;27;20182;-81
2023/03/18 07:41:04;;;;;;;27.80;21.57;;;10.50;99.90;;;;;;5110750;27;20071;-80
2023/03/18 07:43:30;;;;;;;28.43;21.10;;;10.50;99.90;;;;;;5092421;27;20043;-82
2023/03/18 07:45:57;;;;;;;27.60;20.87;;;10.50;99.90;;;;;;5075344;27;20085;-81
2023/03/18 07:48:23;;;;;;;27.90;21.47;;;10.50;99.90;;;;;;5121958;27;20082;-83
2023/03/18 07:50:49;;;;;;;27.57;21.10;;;10.50;99.90;;;;;;5084804;27;20067;-82
2023/03/18 07:53:15;;;;;;;28.90;21.13;;;10.50;99.90;;;;;;5087800;27;20048;-83
2023/03/18 07:55:41;;;;;;;31.37;21.73;;;10.60;99.90;;;;;;5110008;27;20049;-83
2023/03/18 07:58:10;;;;;;;27.37;20.00;;;10.60;99.90;;;;;;5072699;27;20127;-83
2023/03/18 08:00:36;;;;;;;29.30;20.37;;;10.60;99.90;;;;;;5086802;27;20047;-83
2023/03/18 08:03:02;;;;;;;30.30;20.90;;;10.60;99.90;;;;;;5105216;27;20131;-82
2023/03/18 08:05:28;;;;;;;26.37;20.03;;;10.50;99.90;;;;;;5085956;27;20089;-81
2023/03/18 08:07:54;;;;;;;28.67;20.33;;;10.60;99.90;;;;;;5110838;27;20032;-78
2023/03/18 08:10:20;;;;;;;30.40;20.87;;;10.60;99.90;;;;;;5105940;27;20108;-79
2023/03/18 08:12:46;;;;;;;28.20;20.10;;;10.60;99.90;;;;;;5056644;27;20040;-74
2023/03/18 08:15:12;;;;;;;31.10;21.33;;;10.70;99.90;;;;;;5108575;27;20059;-83
2023/03/18 08:17:38;;;;;;;29.53;21.07;;;10.70;99.90;;;;;;5084504;28;20039;-84
2023/03/18 08:20:05;;;;;;;27.67;21.27;;;10.70;99.90;;;;;;5099493;28;20047;-83
2023/03/18 08:22:31;;;;;;;30.23;21.67;;;10.70;99.90;;;;;;5104634;27;20051;-83
2023/03/18 08:24:57;;;;;;;28.37;21.47;;;10.70;99.90;;;;;;5101808;27;20040;-83
2023/03/18 08:27:23;;;;;;;29.67;20.90;;;10.80;99.90;;;;;;5127829;27;20649;-81
2023/03/18 08:29:49;;;;;;;28.73;22.60;;;10.90;99.90;;;;;;5065865;28;20043;-82
2023/03/18 08:32:15;;;;;;;29.17;21.33;;;10.90;99.90;;;;;;5077459;27;20048;-81
2023/03/18 08:34:42;;;;;;;31.70;21.50;;;10.90;99.90;;;;;;5120060;27;20339;-82
2023/03/18 08:37:08;;;;;;;28.00;20.87;;;11.00;99.90;;;;;;5065102;27;20044;-81
2023/03/18 08:39:34;;;;;;;30.30;22.27;;;11.00;99.90;;;;;;5126817;27;20043;-82
2023/03/18 08:42:03;;;;;;;28.60;19.97;;;11.00;99.90;;;;;;5069685;27;20057;-81
2023/03/18 08:44:29;;;;;;;26.53;21.10;;;11.10;99.90;;;;;;5086649;27;20047;-82
2023/03/18 08:46:56;;;;;;;30.03;21.27;;;11.10;99.90;;;;;;5098581;28;20169;-81
2023/03/18 08:49:23;;;;;;;29.90;22.13;;;11.10;99.90;;;;;;5100543;27;20044;-82
2023/03/18 08:51:50;;;;;;;30.03;22.20;;;11.10;99.90;;;;;;5107850;27;20074;-81
2023/03/18 08:54:16;;;;;;;30.03;22.63;;;11.20;99.90;;;;;;5092625;27;20040;-81
2023/03/18 08:56:42;;;;;;;30.90;23.93;;;11.30;99.90;;;;;;5127200;27;20107;-81
2023/03/18 08:59:09;;;;;;;29.53;23.07;;;11.30;99.90;;;;;;5110851;28;20077;-80
2023/03/18 09:01:35;;;;;;;33.70;25.13;;;11.40;99.90;;;;;;5082421;27;20078;-82
2023/03/18 09:04:01;;;;;;;34.30;25.33;;;11.50;99.90;;;;;;5110457;27;20772;-81
2023/03/18 09:06:28;;;;;;;34.37;25.43;;;11.50;99.90;;;;;;5074960;27;20081;-81
2023/03/18 09:08:54;;;;;;;33.20;25.92;;;11.60;99.90;;;;;;5084044;28;20051;-81
2023/03/18 09:11:20;;;;;;;35.37;26.37;;;11.70;99.90;;;;;;5086116;27;20069;-82
2023/03/18 09:13:46;;;;;;;33.28;26.27;;;11.80;99.90;;;;;;5100114;28;20047;-82
2023/03/18 09:16:12;;;;;;;35.00;24.67;;;12.00;99.90;;;;;;5096073;27;20040;-81
2023/03/18 09:18:38;;;;;;;33.00;25.75;;;12.20;99.90;;;;;;5080241;27;20059;-82
2023/03/18 09:21:04;;;;;;;34.42;25.92;;;12.40;99.90;;;;;;5107407;27;20047;-78
2023/03/18 09:23:31;;;;;;;36.00;26.92;;;12.60;99.90;;;;;;5089748;27;20560;-82
2023/03/18 09:25:58;;;;;;;37.25;27.33;;;12.80;99.90;;;;;;5091538;27;20532;-82
2023/03/18 09:28:24;;;;;;;34.00;26.98;;;13.10;99.90;;;;;;5099727;27;20098;-82
2023/03/18 09:30:51;;;;;;;36.25;26.83;;;13.20;99.90;;;;;;5109236;27;20039;-81
2023/03/18 09:33:17;;;;;;;32.47;26.10;;;13.40;99.90;;;;;;5108364;27;20064;-81
2023/03/18 09:35:43;;;;;;;31.80;26.17;;;13.50;99.90;;;;;;5123733;27;20051;-82
2023/03/18 09:38:18;;;;;;;34.40;27.05;;;13.60;99.90;;;;;;5110932;27;20078;-82
2023/03/18 09:41:25;;;;;;;38.85;27.27;;;13.70;99.90;;;;;;5100692;27;20091;-81
2023/03/18 09:44:15;;;;;;;40.97;26.80;;;13.70;99.90;;;;;;5104868;27;20046;-81
2023/03/18 09:47:14;;;;;;;32.08;24.92;;;13.80;99.90;;;;;;5095602;27;20123;-82
2023/03/18 09:50:10;;;;;;;30.67;24.20;;;13.90;99.90;;;;;;5120038;27;20038;-82
2023/03/18 09:52:44;;;;;;;30.05;24.80;;;13.90;99.90;;;;;;5122816;27;20047;-82
2023/03/18 09:55:45;;;;;;;29.88;23.25;;;14.00;99.90;;;;;;5102677;27;20057;-82
2023/03/18 09:58:21;;;;;;;31.08;22.70;;;14.20;99.90;;;;;;5124485;27;20095;-82
2023/03/18 10:00:49;;;;;;;36.70;24.33;;;14.40;99.90;;;;;;5103572;27;20048;-82
2023/03/18 10:03:43;;;;;;;29.77;24.10;;;14.50;99.90;;;;;;5106879;27;20044;-82
2023/03/18 10:06:23;;;;;;;30.40;21.55;;;14.60;99.90;;;;;;5103185;27;20042;-82
2023/03/18 10:08:52;;;;;;;35.08;22.35;;;14.70;99.90;;;;;;5096425;27;20056;-82
2023/03/18 10:11:43;;;;;;;32.97;23.75;;;14.80;99.90;;;;;;5106297;27;20039;-81
2023/03/18 10:14:46;;;;;;;28.63;23.08;;;14.80;99.90;;;;;;5107130;27;20046;-82
2023/03/18 10:17:24;;;;;;;30.33;23.65;;;14.60;99.90;;;;;;5103307;27;20043;-81
2023/03/18 10:19:53;;;;;;;30.67;24.75;;;14.40;99.90;;;;;;5106509;27;20043;-80
2023/03/18 10:22:27;;;;;;;31.75;24.25;;;14.40;99.90;;;;;;5119180;27;20161;-81
2023/03/18 10:25:26;;;;;;;30.58;24.45;;;14.20;99.90;;;;;;5106887;27;20051;-81
2023/03/18 10:28:29;;;;;;;27.88;23.05;;;14.20;99.90;;;;;;5108350;27;20114;-81
2023/03/18 10:31:03;;;;;;;29.45;22.88;;;14.10;99.90;;;;;;5103209;28;20521;-81
2023/03/18 10:33:38;;;;;;;31.20;22.83;;;14.10;99.90;;;;;;5124101;27;20078;-81
2023/03/18 10:36:12;;;;;;;27.52;21.35;;;14.10;99.90;;;;;;5119595;27;20072;-81
2023/03/18 10:38:46;;;;;;;30.02;22.35;;;14.10;99.90;;;;;;5108200;27;20087;-81
2023/03/18 10:41:14;;;;;;;26.75;20.98;;;14.10;99.90;;;;;;5119917;27;20051;-77
2023/03/18 10:43:40;;;;;;;28.75;20.70;;;14.10;99.90;;;;;;5081096;28;20043;-83
2023/03/18 10:46:13;;;;;;;27.65;20.42;;;14.00;99.90;;;;;;5126707;27;20115;-83
2023/03/18 10:48:44;;;;;;;31.77;21.90;;;14.10;99.90;;;;;;5113142;28;20530;-83
2023/03/18 10:51:18;;;;;;;32.47;24.00;;;14.10;99.90;;;;;;5092194;28;20101;-84
2023/03/18 10:54:08;;;;;;;30.70;24.00;;;14.10;99.90;;;;;;5117337;28;20040;-84
2023/03/18 10:56:35;;;;;;;30.63;23.10;;;14.10;99.90;;;;;;5101877;28;20048;-83
2023/03/18 10:59:15;;;;;;;32.55;21.83;;;14.20;99.90;;;;;;5112104;28;20085;-83
2023/03/18 11:01:44;;;;;;;26.38;19.73;;;14.50;99.90;;;;;;5118186;28;20046;-83
2023/03/18 11:04:14;;;;;;;23.60;18.08;;;14.90;99.90;;;;;;5078746;28;20032;-83
2023/03/18 11:06:52;;;;;;;21.73;16.20;;;15.10;99.90;;;;;;5105173;28;20095;-83
2023/03/18 11:09:32;;;;;;;18.20;14.13;;;15.10;99.90;;;;;;5098011;28;20051;-83
2023/03/18 11:12:05;;;;;;;20.23;14.85;;;15.00;99.90;;;;;;5099444;28;20039;-83
2023/03/18 11:14:32;;;;;;;16.92;14.45;;;15.00;99.90;;;;;;5114305;28;20043;-83
2023/03/18 11:17:04;;;;;;;20.02;15.10;;;14.90;99.90;;;;;;5103257;28;20048;-83
2023/03/18 11:19:46;;;;;;;18.13;15.18;;;14.70;99.90;;;;;;5088070;28;20051;-82
2023/03/18 11:22:14;;;;;;;;;;;14.60;99.90;;;;;;5119191;28;20066;-83
2023/03/18 11:24:43;;;;;;;24.02;18.55;;;14.50;99.90;;;;;;5118942;28;19920;-83
2023/03/18 11:27:12;;;;;;;21.23;18.58;;;14.40;99.90;;;;;;5080432;28;20039;-84
2023/03/18 11:29:41;;;;;;;22.45;18.60;;;14.30;99.90;;;;;;5095973;28;20051;-83
2023/03/18 11:32:30;;;;;;;21.60;16.70;;;14.20;99.90;;;;;;5099242;28;20107;-83
2023/03/18 11:35:07;;;;;;;21.25;17.30;;;14.20;99.90;;;;;;5095349;28;20419;-83
2023/03/18 11:37:39;;;;;;;20.08;17.85;;;14.20;99.90;;;;;;5117494;28;20052;-83
2023/03/18 11:40:14;;;;;;;;;;;14.20;99.90;;;;;;5095390;28;20047;-83
2023/03/18 11:42:41;;;;;;;22.30;17.98;;;14.10;99.90;;;;;;5111512;28;19927;-82
2023/03/18 11:45:45;;;;;;;20.65;17.55;;;14.10;99.90;;;;;;5119812;27;20048;-83
2023/03/18 11:48:27;;;;;;;23.02;17.88;;;14.20;99.90;;;;;;5056863;27;20048;-83
2023/03/18 11:51:01;;;;;;;20.23;17.88;;;14.20;99.90;;;;;;5092179;27;20035;-83
2023/03/18 11:53:51;;;;;;;19.42;16.67;;;14.30;99.90;;;;;;5102906;27;20202;-83
2023/03/18 11:56:32;;;;;;;20.25;16.65;;;14.40;99.90;;;;;;5121638;27;20119;-83
2023/03/18 11:59:43;;;;;;;18.83;15.60;;;14.60;99.90;;;;;;5107424;27;20047;-83
2023/03/18 12:02:44;;;;;;;16.98;15.23;;;14.90;99.90;;;;;;5043459;27;20051;-83
2023/03/18 12:05:31;;;;;;;15.05;13.45;;;15.10;99.90;;;;;;5082189;27;20079;-83
2023/03/18 12:08:27;;;;;;;14.38;11.85;;;15.30;99.90;;;;;;5122060;27;20065;-83
2023/03/18 12:11:18;;;;;;;15.80;12.40;;;15.50;99.90;;;;;;5108869;27;20043;-83
2023/03/18 12:14:14;;;;;;;19.80;14.52;;;15.70;99.90;;;;;;5107156;27;20050;-83
2023/03/18 12:17:00;;;;;;;17.08;12.65;;;15.80;99.90;;;;;;5119673;27;20047;-83
2023/03/18 12:19:50;;;;;;;10.93;9.75;;;16.00;99.90;;;;;;5104968;27;20099;-83
2023/03/18 12:22:34;;;;;;;9.32;8.35;;;16.10;99.90;;;;;;5118800;27;20576;-83
2023/03/18 12:25:06;;;;;;;11.02;9.27;;;16.20;99.90;;;;;;5122807;27;20409;-83
2023/03/18 12:27:46;;;;;;;12.23;9.90;;;16.20;99.90;;;;;;5104609;28;20115;-83
2023/03/18 12:30:19;;;;;;;10.05;9.02;;;16.20;99.90;;;;;;5109569;27;20043;-84
2023/03/18 12:33:05;;;;;;;8.50;7.07;;;16.30;99.90;;;;;;5121235;27;20044;-83
2023/03/18 12:35:57;;;;;;;8.82;6.78;;;16.40;99.90;;;;;;5120300;27;20043;-82
2023/03/18 12:38:40;;;;;;;8.85;7.75;;;16.50;99.90;;;;;;5089711;27;20158;-84
2023/03/18 12:41:26;;;;;;;10.13;7.60;;;16.60;99.90;;;;;;5106741;27;20047;-83
2023/03/18 12:44:01;;;;;;;11.90;7.50;;;16.60;99.90;;;;;;5098452;28;20051;-84
2023/03/18 12:46:40;;;;;;;9.70;6.93;;;16.60;99.90;;;;;;5121841;27;20103;-83
2023/03/18 12:49:18;;;;;;;7.82;6.72;;;16.50;99.90;;;;;;5068761;27;20118;-83